Time;durP1;ratioP1;P1;durP2;ratioP2;P2;SDS_P1;SDS_P2;PMS_P1;PMS_P2;Temp;Humidity;BMP_temperature;BMP_pressure;BME280_temperature;BME280_humidity;BME280_pressure;Samples;Min_cycle;Max_cycle;Signal;HPM_P1;HPM_P2
2023/07/06 00:01:51;;;;;;;8.52;2.75;;;;;;;15.03;nan;101167.78;5102104;28;20048;-50
2023/07/06 00:04:18;;;;;;;6.70;2.63;;;;;;;14.95;nan;101162.03;5100015;28;20047;-50
2023/07/06 00:06:45;;;;;;;9.63;2.78;;;;;;;14.92;nan;101164.88;5100731;28;20059;-51
2023/07/06 00:09:13;;;;;;;3.65;2.70;;;;;;;14.84;nan;101166.19;5100093;28;20056;-51
2023/07/06 00:11:41;;;;;;;3.72;2.20;;;;;;;14.76;nan;101171.09;5102632;28;20111;-51
2023/07/06 00:14:10;;;;;;;6.13;2.30;;;;;;;14.65;nan;101162.84;5108286;28;20040;-51
2023/07/06 00:16:41;;;;;;;8.73;2.83;;;;;;;14.58;nan;101174.72;5094569;28;20463;-51
2023/07/06 00:19:08;;;;;;;10.95;2.72;;;;;;;14.49;nan;101171.63;5099654;28;20081;-50
2023/07/06 00:21:35;;;;;;;9.98;3.03;;;;;;;14.44;nan;101171.03;5101066;28;20516;-50
2023/07/06 00:24:01;;;;;;;7.50;2.42;;;;;;;14.39;nan;101175.75;5092795;28;20044;-50
2023/07/06 00:26:28;;;;;;;4.05;2.38;;;;;;;14.30;nan;101174.47;5090672;28;20649;-51
2023/07/06 00:28:55;;;;;;;7.88;2.58;;;;;;;14.26;nan;101177.38;5094596;28;20063;-50
2023/07/06 00:31:32;;;;;;;5.13;3.45;;;;;;;14.20;nan;101185.66;5109777;28;20055;-50
2023/07/06 00:34:03;;;;;;;6.13;3.05;;;;;;;14.14;nan;101190.38;5116012;28;20082;-50
2023/07/06 00:36:31;;;;;;;;;;;;;;;14.11;nan;101190.53;5129983;28;20087;-48
2023/07/06 00:38:57;;;;;;;7.97;3.05;;;;;;;14.10;nan;101182.66;5114229;28;19919;-50
2023/07/06 00:41:24;;;;;;;7.07;2.78;;;;;;;14.04;nan;101191.81;5113464;28;20048;-50
2023/07/06 00:43:53;;;;;;;12.02;3.60;;;;;;;13.98;nan;101191.25;5111931;28;20048;-50
2023/07/06 00:46:21;;;;;;;8.82;3.35;;;;;;;13.92;nan;101189.81;5107198;28;20085;-50
2023/07/06 00:48:51;;;;;;;5.65;2.75;;;;;;;13.88;nan;101188.25;5091766;28;20060;-50
2023/07/06 00:51:24;;;;;;;6.72;3.20;;;;;;;13.85;nan;101188.41;5092991;28;20048;-50
2023/07/06 00:54:01;;;;;;;12.02;3.78;;;;;;;13.77;nan;101197.63;5106143;28;20047;-50
2023/07/06 00:56:34;;;;;;;8.20;2.88;;;;;;;13.77;nan;101202.09;5103393;28;20047;-50
2023/07/06 00:59:04;;;;;;;9.63;3.95;;;;;;;13.74;nan;101196.94;5113256;28;20048;-51
2023/07/06 01:01:34;;;;;;;4.93;2.78;;;;;;;13.67;nan;101201.72;5110302;28;21045;-51
2023/07/06 01:04:03;;;;;;;8.20;3.22;;;;;;;13.61;nan;101196.72;5100368;28;20460;-51
2023/07/06 01:06:39;;;;;;;8.32;2.88;;;;;;;13.56;nan;101196.09;5111715;28;20443;-51
2023/07/06 01:09:06;;;;;;;5.80;3.05;;;;;;;13.52;nan;101190.09;5103059;28;20426;-51
2023/07/06 01:11:37;;;;;;;5.95;2.95;;;;;;;13.49;nan;101200.00;5110176;28;20048;-51
2023/07/06 01:14:03;;;;;;;;;;;;;;;13.45;nan;101201.09;5095349;28;20043;-49
2023/07/06 01:16:45;;;;;;;6.00;3.08;;;;;;;13.43;nan;101206.47;5095710;28;19936;-51
2023/07/06 01:19:30;;;;;;;;;;;;;;;13.42;nan;101206.53;5095940;28;20064;-49
2023/07/06 01:22:23;;;;;;;4.78;2.30;;;;;;;13.33;nan;101213.19;5098086;28;19920;-51
2023/07/06 01:25:11;;;;;;;5.72;2.75;;;;;;;13.23;nan;101223.38;5131701;28;20097;-51
2023/07/06 01:27:41;;;;;;;5.32;3.20;;;;;;;13.15;nan;101215.78;5111099;28;20108;-51
2023/07/06 01:30:24;;;;;;;4.70;2.92;;;;;;;13.16;nan;101216.66;5095270;28;20507;-50
2023/07/06 01:33:14;;;;;;;6.88;3.33;;;;;;;13.18;nan;101215.63;5103229;28;20063;-50
2023/07/06 01:36:01;;;;;;;10.35;3.10;;;;;;;13.23;nan;101212.75;5099010;28;20054;-50
2023/07/06 01:38:27;;;;;;;10.50;3.45;;;;;;;13.32;nan;101212.34;5111796;28;20048;-50
2023/07/06 01:40:55;;;;;;;7.40;2.72;;;;;;;13.39;nan;101207.56;5105149;28;20048;-50
2023/07/06 01:43:21;;;;;;;5.72;3.47;;;;;;;13.45;nan;101201.09;5104542;28;20181;-50
2023/07/06 01:45:48;;;;;;;7.45;3.90;;;;;;;13.51;nan;101208.75;5105910;28;20051;-50
2023/07/06 01:48:15;;;;;;;4.25;2.80;;;;;;;13.54;nan;101205.94;5099559;28;20048;-50
2023/07/06 01:51:04;;;;;;;20.80;3.75;;;;;;;13.59;nan;101209.22;5110988;28;20047;-50
2023/07/06 01:53:50;;;;;;;10.93;3.03;;;;;;;13.54;nan;101217.41;5112824;28;20047;-50
2023/07/06 01:56:24;;;;;;;5.72;3.20;;;;;;;13.52;nan;101218.44;5110067;28;20129;-50
2023/07/06 01:59:01;;;;;;;7.03;2.80;;;;;;;13.45;nan;101223.19;5110032;28;20113;-50
2023/07/06 02:02:00;;;;;;;4.85;3.15;;;;;;;13.45;nan;101232.94;5112082;28;20047;-50
2023/07/06 02:04:30;;;;;;;9.25;4.18;;;;;;;13.42;nan;101227.78;5104302;28;20104;-50
2023/07/06 02:07:01;;;;;;;6.82;2.92;;;;;;;13.40;nan;101231.41;5107662;28;20616;-50
2023/07/06 02:09:28;;;;;;;;;;;;;;;13.43;nan;101222.41;5108642;28;20043;-49
2023/07/06 02:11:55;;;;;;;6.10;2.92;;;;;;;13.41;nan;101232.25;5109134;28;19920;-51
2023/07/06 02:14:21;;;;;;;6.55;3.15;;;;;;;13.49;nan;101229.22;5110091;28;20467;-51
2023/07/06 02:16:54;;;;;;;8.07;3.55;;;;;;;13.61;nan;101228.59;5115097;28;20044;-50
2023/07/06 02:19:21;;;;;;;5.65;3.28;;;;;;;13.59;nan;101230.47;5115326;28;20051;-50
2023/07/06 02:21:49;;;;;;;10.32;3.20;;;;;;;13.50;nan;101225.59;5113062;28;20055;-50
2023/07/06 02:24:17;;;;;;;6.00;2.78;;;;;;;13.44;nan;101228.56;5097119;28;20044;-50
2023/07/06 02:26:45;;;;;;;8.20;3.70;;;;;;;13.36;nan;101234.28;5109358;28;20063;-50
2023/07/06 02:29:14;;;;;;;9.50;3.45;;;;;;;13.37;nan;101236.84;5115051;28;20055;-50
2023/07/06 02:31:41;;;;;;;6.55;3.60;;;;;;;13.37;nan;101236.84;5116818;27;20080;-50
2023/07/06 02:34:07;;;;;;;6.32;3.10;;;;;;;13.38;nan;101238.56;5101789;28;20120;-50
2023/07/06 02:36:34;;;;;;;10.57;3.30;;;;;;;13.38;nan;101248.31;5098548;28;20043;-51
2023/07/06 02:39:03;;;;;;;7.00;3.65;;;;;;;13.42;nan;101243.72;5100407;27;20051;-51
2023/07/06 02:41:30;;;;;;;6.25;2.95;;;;;;;13.43;nan;101237.47;5115549;28;20048;-51
2023/07/06 02:43:57;;;;;;;5.68;3.42;;;;;;;13.47;nan;101236.38;5118320;27;20148;-51
2023/07/06 02:46:24;;;;;;;6.32;3.10;;;;;;;13.54;nan;101243.97;5113257;28;20052;-51
2023/07/06 02:48:50;;;;;;;6.63;2.95;;;;;;;13.52;nan;101245.00;5114479;28;20448;-50
2023/07/06 02:51:17;;;;;;;7.05;2.92;;;;;;;13.58;nan;101234.03;5114624;28;20429;-50
2023/07/06 02:53:45;;;;;;;7.50;3.40;;;;;;;13.56;nan;101235.94;5118670;28;20058;-50
2023/07/06 02:56:11;;;;;;;6.65;3.30;;;;;;;13.54;nan;101238.66;5117988;27;20044;-51
2023/07/06 02:58:38;;;;;;;8.07;3.15;;;;;;;13.50;nan;101241.53;5117680;28;20059;-50
2023/07/06 03:01:05;;;;;;;6.80;3.83;;;;;;;13.47;nan;101239.03;5118643;28;20120;-51
2023/07/06 03:03:32;;;;;;;8.80;3.53;;;;;;;13.38;nan;101238.56;5114208;28;20119;-50
2023/07/06 03:06:01;;;;;;;9.10;3.25;;;;;;;13.38;nan;101243.88;5102971;28;20047;-50
2023/07/06 03:08:28;;;;;;;7.07;2.80;;;;;;;13.26;nan;101254.19;5106071;28;20105;-50
2023/07/06 03:10:55;;;;;;;9.48;3.33;;;;;;;13.19;nan;101253.63;5109973;28;20052;-50
2023/07/06 03:13:25;;;;;;;8.70;3.08;;;;;;;13.16;nan;101251.16;5096739;28;20376;-50
2023/07/06 03:15:52;;;;;;;13.10;3.25;;;;;;;13.18;nan;101257.25;5107688;28;20078;-50
2023/07/06 03:18:19;;;;;;;8.90;4.32;;;;;;;13.17;nan;101255.50;5107767;28;20080;-50
2023/07/06 03:20:48;;;;;;;8.25;2.78;;;;;;;13.20;nan;101255.38;5095668;28;20484;-51
2023/07/06 03:23:15;;;;;;;7.60;3.28;;;;;;;13.28;nan;101257.66;5113189;28;20068;-53
2023/07/06 03:25:42;;;;;;;11.77;3.67;;;;;;;13.23;nan;101261.38;5118945;28;20059;-50
2023/07/06 03:28:08;;;;;;;10.18;3.65;;;;;;;13.21;nan;101263.25;5108425;28;20048;-51
2023/07/06 03:30:35;;;;;;;7.78;3.90;;;;;;;13.24;nan;101267.56;5108923;28;20060;-50
2023/07/06 03:33:01;;;;;;;5.45;2.83;;;;;;;13.22;nan;101259.69;5107267;28;20119;-50
2023/07/06 03:35:28;;;;;;;9.65;3.13;;;;;;;13.15;nan;101268.84;5092564;28;20054;-50
2023/07/06 03:37:55;;;;;;;6.82;4.28;;;;;;;13.15;nan;101276.81;5108364;28;20051;-50
2023/07/06 03:40:21;;;;;;;5.70;3.22;;;;;;;13.16;nan;101280.34;5108443;28;20069;-50
2023/07/06 03:42:48;;;;;;;5.30;3.80;;;;;;;13.15;nan;101279.47;5095272;28;20484;-50
2023/07/06 03:45:16;;;;;;;9.27;3.72;;;;;;;13.11;nan;101282.34;5098870;28;20047;-51
2023/07/06 03:47:45;;;;;;;5.68;3.97;;;;;;;13.11;nan;101285.00;5121459;28;20079;-51
2023/07/06 03:50:14;;;;;;;6.50;3.92;;;;;;;13.13;nan;101288.47;5104948;28;20158;-51
2023/07/06 03:52:42;;;;;;;11.05;3.65;;;;;;;13.14;nan;101296.34;5098407;28;20061;-51
2023/07/06 03:55:12;;;;;;;11.93;4.32;;;;;;;13.14;nan;101298.13;5102971;28;20487;-50
2023/07/06 03:57:40;;;;;;;8.45;4.13;;;;;;;13.14;nan;101303.44;5109399;28;20048;-50
2023/07/06 04:00:22;;;;;;;9.75;4.05;;;;;;;13.15;nan;101307.81;5104756;28;20363;-50
2023/07/06 04:02:54;;;;;;;7.68;4.32;;;;;;;13.11;nan;101315.06;5104159;28;20051;-51
2023/07/06 04:05:31;;;;;;;8.70;4.22;;;;;;;13.09;nan;101316.06;5104866;28;20052;-51
2023/07/06 04:08:10;;;;;;;9.52;4.82;;;;;;;13.11;nan;101319.50;5120388;28;20047;-51
2023/07/06 04:10:38;;;;;;;8.85;4.15;;;;;;;13.10;nan;101317.78;5118433;28;20044;-50
2023/07/06 04:13:05;;;;;;;8.02;4.43;;;;;;;13.10;nan;101317.78;5096300;28;20519;-50
2023/07/06 04:15:34;;;;;;;7.07;4.15;;;;;;;13.11;nan;101314.19;5097310;28;20047;-50
2023/07/06 04:18:03;;;;;;;9.23;4.68;;;;;;;13.12;nan;101316.78;5100036;28;20145;-50
2023/07/06 04:20:30;;;;;;;9.13;4.55;;;;;;;13.10;nan;101317.78;5093137;28;20052;-50
2023/07/06 04:22:58;;;;;;;7.53;4.65;;;;;;;13.09;nan;101316.06;5101258;28;20055;-50
2023/07/06 04:25:29;;;;;;;8.95;5.53;;;;;;;13.14;nan;101328.19;5113473;28;20047;-50
2023/07/06 04:27:57;;;;;;;11.35;4.78;;;;;;;13.17;nan;101324.53;5110267;28;20059;-51
2023/07/06 04:30:25;;;;;;;9.23;4.93;;;;;;;13.22;nan;101327.81;5093643;28;20117;-50
2023/07/06 04:32:52;;;;;;;5.97;4.15;;;;;;;13.28;nan;101319.56;5093058;28;20056;-52
2023/07/06 04:35:24;;;;;;;10.15;4.10;;;;;;;13.36;nan;101335.16;5102251;28;20051;-50
2023/07/06 04:37:51;;;;;;;11.63;3.97;;;;;;;13.63;nan;101332.94;5111892;28;20063;-49
2023/07/06 04:40:20;;;;;;;8.00;3.75;;;;;;;13.90;nan;101329.88;5098003;28;20051;-50
2023/07/06 04:42:50;;;;;;;4.30;3.20;;;;;;;14.25;nan;101324.53;5102925;28;20329;-50
2023/07/06 04:45:18;;;;;;;6.93;2.75;;;;;;;14.33;nan;101332.97;5100520;28;20044;-50
2023/07/06 04:47:46;;;;;;;5.32;3.22;;;;;;;14.39;nan;101330.00;5110650;28;20332;-50
2023/07/06 04:50:22;;;;;;;5.47;2.92;;;;;;;14.60;nan;101324.53;5109212;28;20056;-50
2023/07/06 04:52:55;;;;;;;5.03;2.95;;;;;;;14.74;nan;101327.28;5109063;28;20063;-50
2023/07/06 04:55:23;;;;;;;6.43;2.70;;;;;;;14.82;nan;101330.38;5097140;28;20186;-50
2023/07/06 04:57:56;;;;;;;5.50;3.00;;;;;;;14.88;nan;101339.00;5120857;27;20043;-51
2023/07/06 05:00:28;;;;;;;6.80;3.45;;;;;;;14.92;nan;101333.41;5119403;27;20052;-50
2023/07/06 05:03:00;;;;;;;8.80;2.70;;;;;;;15.04;nan;101334.56;5101201;28;20071;-50
2023/07/06 05:05:32;;;;;;;5.95;2.55;;;;;;;15.13;nan;101333.19;5119122;27;20047;-50
2023/07/06 05:07:58;;;;;;;6.10;2.70;;;;;;;15.12;nan;101337.66;5112843;28;20440;-50
2023/07/06 05:10:26;;;;;;;8.73;2.92;;;;;;;15.18;nan;101339.97;5132434;27;20054;-50
2023/07/06 05:12:55;;;;;;;7.18;2.65;;;;;;;15.20;nan;101335.44;5137835;27;20051;-50
2023/07/06 05:15:23;;;;;;;4.82;2.15;;;;;;;15.30;nan;101340.22;5114362;27;20058;-50
2023/07/06 05:17:50;;;;;;;5.75;2.65;;;;;;;15.33;nan;101340.03;5117565;28;20063;-50
2023/07/06 05:20:16;;;;;;;8.05;2.72;;;;;;;15.36;nan;101350.53;5112647;28;20058;-50
2023/07/06 05:22:48;;;;;;;9.10;2.75;;;;;;;15.42;nan;101351.03;5118691;27;20440;-50
2023/07/06 05:25:19;;;;;;;5.30;2.80;;;;;;;15.45;nan;101355.34;5113759;28;20059;-50
2023/07/06 05:27:47;;;;;;;3.15;2.17;;;;;;;15.55;nan;101356.53;5108803;28;20048;-50
2023/07/06 05:30:14;;;;;;;7.47;2.58;;;;;;;15.54;nan;101360.13;5115053;28;20413;-51
2023/07/06 05:32:41;;;;;;;7.57;2.67;;;;;;;15.75;nan;101357.19;5111324;28;20051;-50
2023/07/06 05:35:09;;;;;;;6.55;2.60;;;;;;;15.80;nan;101351.66;5114380;28;20467;-50
2023/07/06 05:37:36;;;;;;;7.28;2.10;;;;;;;15.83;nan;101354.97;5111644;28;20052;-50
2023/07/06 05:40:06;;;;;;;6.30;2.00;;;;;;;15.85;nan;101358.41;5118330;28;20410;-50
2023/07/06 05:42:32;;;;;;;4.72;2.08;;;;;;;15.75;nan;101351.88;5116029;28;20052;-50
2023/07/06 05:45:00;;;;;;;8.10;2.60;;;;;;;15.85;nan;101353.06;5096440;28;20426;-50
2023/07/06 05:47:27;;;;;;;5.78;2.35;;;;;;;15.89;nan;101359.09;5094817;28;20171;-50
2023/07/06 05:49:54;;;;;;;8.75;2.22;;;;;;;16.00;nan;101361.13;5106878;28;20058;-50
2023/07/06 05:52:21;;;;;;;4.60;2.15;;;;;;;16.01;nan;101374.38;5113994;28;20051;-50
2023/07/06 05:54:47;;;;;;;4.82;2.22;;;;;;;16.14;nan;101374.50;5105271;28;20047;-50
2023/07/06 05:57:16;;;;;;;5.55;2.88;;;;;;;16.19;nan;101372.44;5098206;28;20067;-50
2023/07/06 05:59:43;;;;;;;8.00;2.63;;;;;;;16.34;nan;101365.31;5094573;28;20055;-50
2023/07/06 06:02:14;;;;;;;7.15;3.38;;;;;;;16.15;nan;101366.44;5107326;28;20040;-50
2023/07/06 06:04:41;;;;;;;5.80;2.45;;;;;;;16.18;nan;101375.19;5094781;28;20059;-50
2023/07/06 06:07:09;;;;;;;4.93;2.20;;;;;;;16.32;nan;101378.75;5101386;28;20043;-50
2023/07/06 06:09:36;;;;;;;4.35;2.45;;;;;;;16.38;nan;101380.19;5114583;28;20124;-50
2023/07/06 06:12:04;;;;;;;4.07;2.10;;;;;;;16.39;nan;101387.22;5120760;28;20104;-51
2023/07/06 06:14:32;;;;;;;8.77;2.15;;;;;;;16.51;nan;101380.31;5101901;27;20056;-50
2023/07/06 06:16:59;;;;;;;3.58;2.05;;;;;;;16.40;nan;101378.28;5094094;28;20100;-51
2023/07/06 06:19:27;;;;;;;5.35;2.10;;;;;;;16.55;nan;101389.84;5100920;28;20051;-49
2023/07/06 06:21:54;;;;;;;5.53;2.40;;;;;;;16.47;nan;101378.78;5115599;28;20462;-50
2023/07/06 06:24:22;;;;;;;5.85;2.40;;;;;;;16.50;nan;101387.44;5111997;28;20352;-50
2023/07/06 06:26:49;;;;;;;7.53;2.92;;;;;;;16.65;nan;101390.16;5068781;28;1107767;-50
2023/07/06 06:29:17;;;;;;;5.63;1.77;;;;;;;16.67;nan;101394.44;5106454;28;20109;-50
2023/07/06 06:31:43;;;;;;;3.80;1.80;;;;;;;16.74;nan;101399.38;5104838;28;20051;-50
2023/07/06 06:34:11;;;;;;;3.28;1.80;;;;;;;16.84;nan;101400.56;5115162;28;20098;-52
2023/07/06 06:36:38;;;;;;;3.40;2.13;;;;;;;16.99;nan;101402.28;5106506;28;20048;-50
2023/07/06 06:39:05;;;;;;;3.88;1.60;;;;;;;17.15;nan;101398.69;5112832;28;20111;-49
2023/07/06 06:41:31;;;;;;;4.18;2.10;;;;;;;17.24;nan;101392.72;5111124;28;20093;-49
2023/07/06 06:43:58;;;;;;;4.60;2.05;;;;;;;17.11;nan;101402.47;5094195;28;20052;-50
2023/07/06 06:46:24;;;;;;;3.55;1.90;;;;;;;17.24;nan;101403.41;5098877;28;20141;-50
2023/07/06 06:48:52;;;;;;;32.38;4.38;;;;;;;17.34;nan;101388.50;5102507;28;20040;-50
2023/07/06 06:51:19;;;;;;;5.22;2.00;;;;;;;17.43;nan;101403.97;5112859;28;20073;-50
2023/07/06 06:53:46;;;;;;;12.63;2.97;;;;;;;17.41;nan;101400.53;5106720;28;20043;-50
2023/07/06 06:56:13;;;;;;;5.82;1.88;;;;;;;17.39;nan;101394.44;5112053;28;20421;-50
2023/07/06 06:58:41;;;;;;;3.83;1.65;;;;;;;17.63;nan;101401.81;5111794;28;20052;-50
2023/07/06 07:01:10;;;;;;;11.20;2.20;;;;;;;17.65;nan;101397.22;5109526;28;20085;-50
2023/07/06 07:03:36;;;;;;;11.02;2.92;;;;;;;17.70;nan;101405.78;5111126;28;20062;-49
2023/07/06 07:06:11;;;;;;;5.95;1.50;;;;;;;17.74;nan;101401.13;5110906;28;20055;-50
2023/07/06 07:08:39;;;;;;;3.80;2.28;;;;;;;17.59;nan;101408.34;5114032;27;20055;-50
2023/07/06 07:11:06;;;;;;;7.68;2.10;;;;;;;17.87;nan;101417.22;5108795;28;20130;-50
2023/07/06 07:13:48;;;;;;;2.50;1.30;;;;;;;18.07;nan;101406.06;5112476;28;20047;-50
2023/07/06 07:16:15;;;;;;;3.65;1.88;;;;;;;17.63;nan;101415.19;5119731;27;20039;-49
2023/07/06 07:18:43;;;;;;;5.75;1.48;;;;;;;17.72;nan;101414.59;5112082;28;20060;-49
2023/07/06 07:21:12;;;;;;;5.03;2.17;;;;;;;17.61;nan;101409.09;5098130;28;20139;-49
2023/07/06 07:23:44;;;;;;;3.42;1.58;;;;;;;17.86;nan;101410.16;5100896;28;20062;-49
2023/07/06 07:26:14;;;;;;;5.03;1.90;;;;;;;17.84;nan;101420.09;5117347;28;20051;-50
2023/07/06 07:28:41;;;;;;;4.13;1.67;;;;;;;17.72;nan;101414.59;5110760;28;20081;-49
2023/07/06 07:31:11;;;;;;;2.83;1.77;;;;;;;18.03;nan;101422.44;5112153;28;20752;-50
2023/07/06 07:33:41;;;;;;;3.08;1.38;;;;;;;17.96;nan;101417.50;5100731;27;20059;-50
2023/07/06 07:36:12;;;;;;;3.35;1.65;;;;;;;18.23;nan;101413.09;5105268;27;20040;-50
2023/07/06 07:38:39;;;;;;;3.42;1.50;;;;;;;18.46;nan;101420.41;5102349;27;20051;-49
2023/07/06 07:41:07;;;;;;;8.80;2.10;;;;;;;18.56;nan;101417.94;5113167;27;20055;-50
2023/07/06 07:43:36;;;;;;;10.45;1.40;;;;;;;18.49;nan;101425.53;5111053;27;20428;-50
2023/07/06 07:46:05;;;;;;;4.10;1.70;;;;;;;18.52;nan;101425.34;5113273;27;20043;-50
2023/07/06 07:48:37;;;;;;;3.03;1.25;;;;;;;18.42;nan;101424.25;5126353;27;20047;-49
2023/07/06 07:51:07;;;;;;;2.15;1.33;;;;;;;18.47;nan;101426.59;5111714;28;20064;-49
2023/07/06 07:53:37;;;;;;;3.45;1.75;;;;;;;18.41;nan;101427.88;5115083;27;20066;-49
2023/07/06 07:56:07;;;;;;;2.80;1.30;;;;;;;18.43;nan;101427.78;5129854;27;20447;-51
2023/07/06 07:58:36;;;;;;;4.55;1.67;;;;;;;18.61;nan;101431.03;5115556;27;20103;-49
2023/07/06 08:01:06;;;;;;;3.20;1.65;;;;;;;18.81;nan;101424.28;5114887;27;20380;-49
2023/07/06 08:03:36;;;;;;;4.60;1.80;;;;;;;18.70;nan;101423.22;5101704;27;20433;-49
2023/07/06 08:06:05;;;;;;;5.30;2.13;;;;;;;18.87;nan;101423.88;5111474;27;20054;-51
2023/07/06 08:08:33;;;;;;;6.95;1.65;;;;;;;18.77;nan;101428.16;5123849;27;20425;-49
2023/07/06 08:11:05;;;;;;;4.35;1.83;;;;;;;18.51;nan;101439.66;5109848;27;20477;-49
2023/07/06 08:13:33;;;;;;;7.13;1.98;;;;;;;18.72;nan;101425.78;5108016;28;20047;-50
2023/07/06 08:16:01;;;;;;;5.55;1.60;;;;;;;19.08;nan;101427.72;5115842;27;20456;-49
2023/07/06 08:18:28;;;;;;;3.15;1.75;;;;;;;19.36;nan;101438.31;5105750;28;20039;-49
2023/07/06 08:20:55;;;;;;;4.65;2.05;;;;;;;19.57;nan;101434.06;5119377;28;20158;-49
2023/07/06 08:23:50;;;;;;;6.95;1.88;;;;;;;19.89;nan;101438.91;5108480;28;20050;-50
2023/07/06 08:26:17;;;;;;;5.20;2.55;;;;;;;20.05;nan;101440.44;5109769;28;20047;-49
2023/07/06 08:28:45;;;;;;;3.17;1.75;;;;;;;20.29;nan;101443.97;5121928;27;20066;-50
2023/07/06 08:31:14;;;;;;;2.15;1.20;;;;;;;20.63;nan;101445.88;5110853;28;20055;-49
2023/07/06 08:33:42;;;;;;;4.30;2.17;;;;;;;20.70;nan;101444.47;5115068;28;20109;-51
2023/07/06 08:36:09;;;;;;;7.53;2.88;;;;;;;20.30;nan;101451.06;5107876;28;20100;-50
2023/07/06 08:38:37;;;;;;;5.00;1.60;;;;;;;20.74;nan;101443.25;5116414;28;20044;-51
2023/07/06 08:41:14;;;;;;;3.00;1.23;;;;;;;20.99;nan;101434.16;5107294;28;20055;-51
2023/07/06 08:43:41;;;;;;;4.35;1.70;;;;;;;20.85;nan;101453.19;5110296;28;20048;-50
2023/07/06 08:46:11;;;;;;;12.80;2.38;;;;;;;20.82;nan;101448.88;5127826;28;20050;-50
2023/07/06 08:48:38;;;;;;;6.22;2.15;;;;;;;20.10;nan;101451.69;5111449;28;20347;-51
2023/07/06 08:51:27;;;;;;;4.63;1.65;;;;;;;19.70;nan;101454.59;5111136;28;20047;-49
2023/07/06 08:54:00;;;;;;;3.72;1.90;;;;;;;19.47;nan;101454.47;5116709;28;20051;-50
2023/07/06 08:56:30;;;;;;;3.35;1.88;;;;;;;19.26;nan;101457.72;5115689;28;20479;-50
2023/07/06 08:58:59;;;;;;;5.40;2.38;;;;;;;19.17;nan;101463.72;5111560;28;20055;-49
2023/07/06 09:01:26;;;;;;;5.85;1.73;;;;;;;19.25;nan;101463.19;5114124;28;20112;-49
2023/07/06 09:04:00;;;;;;;3.40;1.95;;;;;;;19.30;nan;101462.84;5108506;28;20448;-49
2023/07/06 09:06:29;;;;;;;7.03;2.92;;;;;;;19.43;nan;101463.69;5110089;28;20046;-51
2023/07/06 09:09:02;;;;;;;6.82;1.75;;;;;;;19.34;nan;101467.00;5122374;27;20051;-49
2023/07/06 09:11:31;;;;;;;5.25;2.00;;;;;;;19.34;nan;101459.84;5110441;28;20040;-50
2023/07/06 09:14:02;;;;;;;7.15;2.10;;;;;;;19.75;nan;101460.50;5112429;28;20601;-51
2023/07/06 09:16:34;;;;;;;3.15;1.45;;;;;;;20.11;nan;101456.09;5111851;28;20529;-49
2023/07/06 09:19:08;;;;;;;4.28;1.55;;;;;;;20.40;nan;101459.28;5104674;28;20051;-48
2023/07/06 09:21:36;;;;;;;8.45;2.10;;;;;;;20.62;nan;101453.09;5126846;27;20054;-51
2023/07/06 09:24:03;;;;;;;6.88;1.90;;;;;;;21.00;nan;101453.81;5116590;27;20039;-50
2023/07/06 09:26:33;;;;;;;6.10;2.17;;;;;;;21.50;nan;101448.09;5129949;27;20058;-49
2023/07/06 09:29:45;;;;;;;3.50;1.75;;;;;;;21.16;nan;101445.38;5110120;28;20052;-50
2023/07/06 09:32:11;;;;;;;5.00;1.60;;;;;;;20.90;nan;101445.59;5093529;27;20611;-50
2023/07/06 09:34:44;;;;;;;4.18;1.60;;;;;;;21.09;nan;101440.50;5107928;27;20044;-50
2023/07/06 09:37:13;;;;;;;3.05;1.77;;;;;;;20.66;nan;101454.63;5114515;27;20047;-50
2023/07/06 09:39:40;;;;;;;9.13;1.85;;;;;;;20.65;nan;101458.25;5129953;27;20043;-52
2023/07/06 09:42:15;;;;;;;3.00;1.55;;;;;;;20.63;nan;101457.53;5121564;27;20125;-50
2023/07/06 09:44:42;;;;;;;3.53;1.60;;;;;;;20.80;nan;101461.59;5121567;27;20043;-51
2023/07/06 09:47:13;;;;;;;2.92;1.88;;;;;;;20.56;nan;101458.94;5129914;27;20043;-51
2023/07/06 09:49:58;;;;;;;4.75;1.40;;;;;;;20.86;nan;101466.50;5125862;27;20142;-51
2023/07/06 09:52:26;;;;;;;2.35;1.50;;;;;;;21.44;nan;101454.78;5115004;27;20452;-50
2023/07/06 09:55:02;;;;;;;7.72;2.08;;;;;;;22.02;nan;101453.69;5118902;27;20062;-50
2023/07/06 09:57:34;;;;;;;4.82;1.92;;;;;;;22.28;nan;101443.44;5096227;28;20055;-50
2023/07/06 10:00:02;;;;;;;5.50;1.83;;;;;;;22.25;nan;101446.38;5115938;27;20047;-51
2023/07/06 10:02:48;;;;;;;5.38;1.88;;;;;;;22.14;nan;101450.84;5128359;27;20500;-50
2023/07/06 10:05:29;;;;;;;7.07;1.58;;;;;;;22.44;nan;101454.63;5108486;27;20063;-49
2023/07/06 10:08:11;;;;;;;2.35;1.50;;;;;;;22.49;nan;101447.06;5118537;27;20052;-50
2023/07/06 10:10:58;;;;;;;4.25;1.40;;;;;;;22.75;nan;101446.63;5116498;27;20043;-52
2023/07/06 10:13:38;;;;;;;3.53;1.38;;;;;;;21.71;nan;101448.16;5114231;27;20055;-50
2023/07/06 10:16:32;;;;;;;5.38;2.70;;;;;;;21.57;nan;101457.34;5131667;27;20070;-51
2023/07/06 10:19:12;;;;;;;3.58;1.48;;;;;;;22.09;nan;101458.44;5116839;27;20119;-51
2023/07/06 10:22:09;;;;;;;2.72;1.52;;;;;;;21.76;nan;101444.13;5121011;27;20051;-49
2023/07/06 10:24:55;;;;;;;2.22;1.38;;;;;;;21.76;nan;101449.50;5109963;28;20051;-50
2023/07/06 10:27:29;;;;;;;3.42;1.90;;;;;;;22.10;nan;101451.22;5115708;27;20104;-50
2023/07/06 10:30:02;;;;;;;6.90;1.20;;;;;;;22.09;nan;101457.59;5114402;27;20043;-49
2023/07/06 10:32:37;;;;;;;4.50;1.58;;;;;;;22.15;nan;101460.63;5130145;27;20467;-49
2023/07/06 10:35:13;;;;;;;8.15;2.00;;;;;;;21.87;nan;101453.13;5109276;27;20047;-49
2023/07/06 10:37:42;;;;;;;6.72;1.80;;;;;;;22.47;nan;101449.00;5111731;27;20166;-50
2023/07/06 10:40:27;;;;;;;4.55;1.20;;;;;;;22.60;nan;101456.03;5119490;27;20062;-50
2023/07/06 10:43:13;;;;;;;10.85;2.30;;;;;;;22.54;nan;101460.97;5111144;28;20460;-49
2023/07/06 10:45:51;;;;;;;3.75;1.70;;;;;;;21.85;nan;101468.56;5114590;27;20044;-49
2023/07/06 10:48:21;;;;;;;10.68;2.20;;;;;;;21.77;nan;101461.97;5113413;28;20039;-49
2023/07/06 10:51:09;;;;;;;6.85;1.77;;;;;;;21.45;nan;101467.25;5111271;27;20044;-50
2023/07/06 10:53:41;;;;;;;4.38;1.80;;;;;;;21.69;nan;101464.41;5108067;28;20463;-49
2023/07/06 10:56:11;;;;;;;5.32;1.73;;;;;;;22.10;nan;101472.75;5109409;27;20048;-50
2023/07/06 10:58:55;;;;;;;3.75;1.10;;;;;;;21.68;nan;101462.72;5107941;28;20055;-49
2023/07/06 11:01:31;;;;;;;6.60;1.77;;;;;;;21.43;nan;101472.75;5132742;27;20043;-49
2023/07/06 11:04:00;;;;;;;3.13;1.63;;;;;;;22.14;nan;101464.28;5107616;27;20052;-49
2023/07/06 11:06:39;;;;;;;5.07;1.65;;;;;;;24.59;nan;101466.19;5107616;28;20096;-49
2023/07/06 11:09:07;;;;;;;3.00;2.03;;;;;;;22.94;nan;101472.00;5110579;28;20404;-49
2023/07/06 11:11:39;;;;;;;3.78;1.52;;;;;;;24.83;nan;101464.84;5096245;28;20120;-50
2023/07/06 11:14:33;;;;;;;3.85;1.02;;;;;;;23.48;nan;101464.59;5101602;28;20058;-49
2023/07/06 11:17:04;;;;;;;4.53;1.52;;;;;;;23.51;nan;101462.47;5105255;28;20056;-50
2023/07/06 11:19:38;;;;;;;4.53;1.58;;;;;;;23.39;nan;101477.06;5113500;28;20124;-49
2023/07/06 11:22:16;;;;;;;2.13;1.20;;;;;;;22.80;nan;101471.34;5109469;28;20082;-50
2023/07/06 11:24:48;;;;;;;3.15;1.42;;;;;;;22.67;nan;101476.94;5126586;27;20051;-49
2023/07/06 11:27:32;;;;;;;5.07;2.70;;;;;;;24.34;nan;101478.38;5122555;27;20115;-49
2023/07/06 11:30:32;;;;;;;5.95;1.63;;;;;;;23.67;nan;101483.56;5134081;27;20471;-49
2023/07/06 11:33:26;;;;;;;2.88;1.48;;;;;;;22.45;nan;101487.84;5118444;27;20052;-49
2023/07/06 11:36:00;;;;;;;3.60;1.55;;;;;;;22.87;nan;101483.31;5098759;28;20480;-49
2023/07/06 11:39:05;;;;;;;2.38;1.55;;;;;;;24.33;nan;101482.94;5096316;28;20048;-48
2023/07/06 11:41:42;;;;;;;2.50;1.25;;;;;;;25.35;nan;101477.94;5114018;27;20420;-49
2023/07/06 11:44:47;;;;;;;3.22;1.60;;;;;;;24.92;nan;101488.31;5106956;28;20382;-50
2023/07/06 11:47:22;;;;;;;5.10;1.50;;;;;;;24.04;nan;101484.78;5107107;28;20385;-49
2023/07/06 11:50:01;;;;;;;3.47;1.88;;;;;;;23.92;nan;101495.69;5108112;28;20086;-48
2023/07/06 11:52:35;;;;;;;2.67;1.13;;;;;;;24.05;nan;101490.03;5112640;27;20108;-49
2023/07/06 11:55:13;;;;;;;3.10;1.55;;;;;;;23.67;nan;101496.16;5127398;27;20050;-49
2023/07/06 11:58:28;;;;;;;4.60;1.20;;;;;;;23.25;nan;101498.00;5110835;27;20055;-50
2023/07/06 12:01:10;;;;;;;5.70;1.67;;;;;;;23.44;nan;101490.97;5105908;28;20051;-48
2023/07/06 12:03:37;;;;;;;4.63;1.58;;;;;;;22.94;nan;101490.88;5108533;27;20064;-49